createdAt,value
2022-12-08T11:22:28.843Z,15.30
2022-12-08T11:25:31.351Z,20.80
2022-12-08T11:28:33.504Z,18.67
2022-12-08T11:31:44.014Z,21.60
2022-12-08T11:35:07.554Z,15.73
2022-12-08T11:38:23.363Z,17.17
2022-12-08T11:42:07.698Z,23.48
2022-12-08T11:45:30.542Z,16.20
2022-12-08T11:48:42.447Z,21.97
2022-12-08T11:51:51.551Z,18.37
2022-12-08T11:55:17.511Z,23.25
2022-12-08T11:58:29.405Z,19.50
2022-12-08T12:01:31.341Z,18.17
2022-12-08T12:07:26.479Z,17.50
2022-12-08T12:12:13.696Z,21.58
2022-12-08T12:15:21.667Z,23.60
2022-12-08T12:18:24.948Z,20.17
2022-12-08T12:21:38.104Z,21.75
2022-12-08T12:24:44.913Z,21.58
2022-12-08T12:27:57.319Z,21.00
2022-12-08T12:31:06.557Z,19.05
2022-12-08T12:34:20.116Z,24.53
2022-12-08T12:37:45.276Z,22.77
2022-12-08T12:40:50.925Z,17.98
2022-12-08T12:44:08.528Z,23.50
2022-12-08T12:47:18.218Z,18.65
2022-12-08T12:50:50.476Z,19.23
2022-12-08T12:53:53.571Z,17.90
2022-12-08T12:57:08.660Z,18.45
2022-12-08T13:00:25.093Z,24.45
2022-12-08T13:03:28.466Z,19.38
2022-12-08T13:06:43.863Z,20.33
2022-12-08T13:09:59.141Z,21.38
2022-12-08T13:13:10.402Z,19.63
2022-12-08T13:16:22.699Z,16.63
2022-12-08T13:19:26.794Z,18.08
2022-12-08T13:22:50.456Z,15.20
2022-12-08T13:26:08.390Z,20.52
2022-12-08T13:29:25.952Z,20.02
2022-12-08T13:33:19.698Z,21.15
2022-12-08T13:36:26.175Z,21.60
2022-12-08T13:39:55.103Z,22.67
2022-12-08T13:43:15.423Z,24.20
2022-12-08T13:57:48.169Z,21.43
2022-12-08T14:01:10.172Z,23.67
2022-12-08T14:04:47.886Z,22.80
2022-12-08T14:07:51.271Z,20.70
2022-12-08T14:11:02.741Z,18.88
2022-12-08T14:14:45.849Z,18.87
2022-12-08T14:17:52.381Z,23.25
2022-12-08T14:21:20.897Z,26.95
2022-12-08T14:24:26.797Z,22.38
2022-12-08T14:27:34.977Z,20.67
2022-12-08T14:30:39.680Z,20.70
2022-12-08T14:33:42.654Z,22.13
2022-12-08T14:36:44.905Z,24.17
2022-12-08T14:39:47.674Z,23.83
2022-12-08T14:43:15.415Z,21.17
2022-12-08T14:46:25.931Z,21.90
2022-12-08T14:49:36.297Z,19.92
2022-12-08T14:52:47.343Z,23.27
2022-12-08T14:55:50.020Z,24.05
2022-12-08T14:59:13.059Z,23.17
2022-12-08T15:02:15.592Z,21.20
2022-12-08T15:05:45.363Z,20.45
2022-12-08T15:09:16.306Z,25.45
2022-12-08T15:12:33.301Z,24.00
2022-12-08T15:15:55.564Z,20.05
2022-12-08T15:19:29.759Z,22.57
2022-12-08T15:22:34.667Z,25.80
2022-12-08T15:26:07.002Z,20.00
2022-12-08T15:29:26.241Z,18.52
2022-12-08T15:32:30.604Z,26.85
2022-12-08T15:35:37.353Z,28.67
2022-12-08T15:38:43.806Z,27.85
2022-12-08T15:41:46.632Z,24.90
2022-12-08T15:44:48.837Z,22.48
2022-12-08T15:47:50.887Z,29.55
2022-12-08T15:50:54.207Z,23.80
2022-12-08T15:54:00.189Z,23.42
2022-12-08T15:57:19.219Z,28.27
2022-12-08T16:07:30.791Z,26.17
2022-12-08T16:11:08.440Z,24.63
2022-12-08T16:13:58.438Z,23.23
2022-12-08T16:17:05.340Z,28.73
2022-12-08T16:20:12.570Z,24.00
2022-12-08T16:23:41.083Z,26.77
2022-12-08T16:30:09.005Z,26.88
2022-12-08T16:33:12.563Z,27.50
2022-12-08T16:36:16.333Z,23.02
2022-12-08T16:39:18.408Z,24.47
2022-12-08T16:42:44.849Z,24.05
2022-12-08T16:45:48.328Z,21.70
2022-12-08T16:48:53.445Z,26.65
2022-12-08T16:52:04.987Z,23.00
2022-12-08T16:55:15.249Z,21.53
2022-12-08T16:58:26.820Z,24.73
2022-12-08T17:01:29.537Z,21.95
2022-12-08T17:04:32.571Z,21.60
2022-12-08T17:07:37.057Z,23.50
2022-12-08T17:10:41.780Z,19.43
2022-12-08T17:13:47.162Z,24.67
2022-12-08T17:16:49.458Z,25.15
2022-12-08T17:19:53.743Z,22.33
2022-12-08T17:22:59.494Z,19.58
2022-12-08T17:26:06.272Z,21.83
2022-12-08T17:29:11.085Z,27.20
2022-12-08T17:32:14.525Z,25.77
2022-12-08T17:35:17.037Z,24.38
2022-12-08T17:38:22.255Z,24.42
2022-12-08T17:41:25.417Z,18.27
2022-12-08T17:44:28.385Z,22.90
2022-12-08T17:47:30.656Z,20.98
2022-12-08T17:50:33.735Z,19.48
2022-12-08T17:53:37.496Z,22.15
2022-12-08T17:56:42.234Z,22.10
2022-12-08T17:59:49.206Z,22.90
2022-12-08T18:02:52.551Z,24.42
2022-12-08T18:05:57.196Z,19.75
2022-12-08T18:09:00.878Z,22.00
2022-12-08T18:12:04.390Z,22.60
2022-12-08T18:15:12.041Z,21.67
2022-12-08T18:18:15.474Z,22.10
2022-12-08T18:21:23.553Z,19.60
2022-12-08T18:24:25.881Z,21.67
2022-12-08T18:27:27.804Z,25.27
2022-12-08T18:30:30.667Z,23.13
2022-12-08T18:33:33.254Z,26.77
2022-12-08T18:36:37.047Z,23.10
2022-12-08T18:39:39.447Z,22.38
2022-12-08T18:42:42.922Z,25.80
2022-12-08T18:45:45.613Z,20.70
2022-12-08T18:48:50.207Z,21.13
2022-12-08T18:51:53.476Z,22.73
2022-12-08T18:55:07.513Z,17.70
2022-12-08T18:58:12.112Z,22.20
2022-12-08T19:01:15.816Z,22.63
2022-12-08T19:04:38.553Z,20.90
2022-12-08T19:07:43.759Z,24.60
2022-12-08T19:10:45.903Z,20.02
2022-12-08T19:13:49.991Z,20.17
2022-12-08T19:16:53.079Z,20.42
2022-12-08T19:19:55.491Z,20.90
2022-12-08T19:22:58.508Z,20.58
2022-12-08T19:26:01.541Z,17.10
2022-12-08T19:29:03.898Z,22.17
2022-12-08T19:32:08.142Z,23.25
2022-12-08T19:35:10.291Z,22.50
2022-12-08T19:38:13.127Z,23.27
2022-12-08T19:41:34.560Z,24.95
2022-12-08T19:44:55.501Z,21.03
2022-12-08T19:47:57.695Z,19.90
2022-12-08T19:51:00.568Z,23.15
2022-12-08T19:54:02.712Z,24.92
2022-12-08T19:57:04.728Z,24.88
2022-12-08T20:00:10.328Z,19.80
2022-12-08T20:03:22.664Z,24.27
2022-12-08T20:06:26.688Z,28.15
2022-12-08T20:09:29.029Z,26.52
2022-12-08T20:12:31.569Z,23.83
2022-12-08T20:15:33.840Z,24.53
2022-12-08T20:18:39.064Z,23.65
2022-12-08T20:21:41.499Z,29.83
2022-12-08T20:24:43.480Z,25.52
2022-12-08T20:27:45.956Z,28.13
2022-12-08T20:30:49.615Z,31.10
2022-12-08T20:33:52.595Z,25.13
2022-12-08T20:36:55.006Z,25.67
2022-12-08T20:39:57.327Z,29.23
2022-12-08T20:42:59.984Z,24.38
2022-12-08T20:46:10.539Z,25.77
2022-12-08T20:49:13.430Z,26.88
2022-12-08T20:52:18.479Z,26.05
2022-12-08T20:55:20.662Z,29.23
2022-12-08T20:58:24.656Z,27.98
2022-12-08T21:01:27.421Z,26.27
2022-12-08T21:04:29.880Z,26.75
2022-12-08T21:07:34.272Z,27.20
2022-12-08T21:10:42.206Z,28.88
2022-12-08T21:13:46.952Z,27.27
2022-12-08T21:16:54.604Z,28.30
2022-12-08T21:19:58.236Z,32.28
2022-12-08T21:23:00.932Z,29.48
2022-12-08T21:26:03.534Z,29.70
2022-12-08T21:29:07.196Z,30.90
2022-12-08T21:32:09.380Z,32.53
2022-12-08T21:35:11.802Z,31.65
2022-12-08T21:38:14.058Z,30.85
2022-12-08T21:41:38.810Z,31.02
2022-12-08T21:44:40.876Z,29.52
2022-12-08T21:47:44.218Z,30.10
2022-12-08T21:50:47.234Z,32.17
2022-12-08T21:53:49.328Z,33.75
2022-12-08T21:56:51.677Z,36.72
2022-12-08T21:59:53.764Z,32.75
2022-12-08T22:02:56.447Z,32.67
2022-12-08T22:05:58.868Z,31.48
2022-12-08T22:09:07.235Z,31.35
2022-12-08T22:12:11.848Z,30.15
2022-12-08T22:15:14.827Z,36.35
2022-12-08T22:18:17.294Z,33.90
2022-12-08T22:21:19.563Z,32.85
2022-12-08T22:24:21.759Z,34.50
2022-12-08T22:27:23.734Z,34.13
2022-12-08T22:30:25.881Z,36.38
2022-12-08T22:33:31.874Z,34.03
2022-12-08T22:36:34.383Z,31.92
2022-12-08T22:39:36.545Z,34.53
2022-12-08T22:42:38.653Z,30.50
2022-12-08T22:45:41.116Z,33.65
2022-12-08T22:48:44.483Z,31.20
2022-12-08T22:51:46.875Z,35.20
2022-12-08T22:54:48.893Z,33.88
2022-12-08T22:57:50.910Z,35.78
2022-12-08T23:00:52.923Z,37.50
2022-12-08T23:03:55.749Z,34.70
2022-12-08T23:06:58.042Z,31.35
2022-12-08T23:10:00.361Z,33.42
2022-12-08T23:13:04.180Z,36.45
2022-12-08T23:16:08.990Z,36.55
2022-12-08T23:19:11.075Z,37.97
2022-12-08T23:22:13.156Z,34.83
2022-12-08T23:25:15.251Z,36.50
2022-12-08T23:28:17.339Z,36.83
2022-12-08T23:31:20.462Z,40.10
2022-12-08T23:34:22.678Z,38.63
2022-12-08T23:37:25.083Z,34.28
2022-12-08T23:40:28.525Z,37.95
2022-12-08T23:43:30.908Z,40.67
2022-12-08T23:46:33.069Z,38.30
2022-12-08T23:49:36.617Z,33.57
2022-12-08T23:52:40.271Z,35.75
2022-12-08T23:55:42.949Z,36.45
2022-12-08T23:58:45.974Z,41.63
